Time;durP1;ratioP1;P1;durP2;ratioP2;P2;SDS_P1;SDS_P2;PMS_P1;PMS_P2;Temp;Humidity;BMP_temperature;BMP_pressure;BME280_temperature;BME280_humidity;BME280_pressure;Samples;Min_cycle;Max_cycle;Signal;HPM_P1;HPM_P2
2023/05/11 00:00:43;;;;;;;9.23;3.53;;;;;;;13.69;97.10;97951.34;4164740;28;20742;-86
2023/05/11 00:02:46;;;;;;;3.43;2.83;;;;;;;13.69;96.35;97946.09;4160197;28;20726;-86
2023/05/11 00:04:49;;;;;;;10.13;4.10;;;;;;;13.68;96.34;97954.94;4169923;28;21206;-86
2023/05/11 00:06:55;;;;;;;8.70;4.50;;;;;;;13.68;96.58;97954.09;4167189;28;20630;-86
2023/05/11 00:08:58;;;;;;;8.10;4.00;;;;;;;13.66;96.65;97950.78;4163770;28;20651;-86
2023/05/11 00:11:01;;;;;;;18.53;4.23;;;;;;;13.64;96.91;97951.88;4169830;28;20626;-86
2023/05/11 00:13:04;;;;;;;10.50;3.40;;;;;;;13.61;96.66;97947.72;4171345;28;21237;-86
2023/05/11 00:15:08;;;;;;;7.83;3.40;;;;;;;13.58;96.93;97950.59;4168704;28;20647;-86
2023/05/11 00:17:11;;;;;;;11.67;4.83;;;;;;;13.57;96.43;97955.97;4166715;28;20628;-86
2023/05/11 00:19:14;;;;;;;8.93;4.27;;;;;;;13.54;96.34;97949.16;4168511;28;21227;-86
2023/05/11 00:21:18;;;;;;;9.83;4.87;;;;;;;13.53;97.07;97949.28;4168364;28;21825;-86
2023/05/11 00:23:22;;;;;;;15.77;5.20;;;;;;;13.53;97.10;97949.28;4168181;28;20648;-86
2023/05/11 00:25:25;;;;;;;11.13;6.00;;;;;;;13.52;97.26;97953.72;4168265;28;20645;-85
2023/05/11 00:27:28;;;;;;;9.80;3.97;;;;;;;13.51;97.05;97949.41;4167019;28;20646;-86
2023/05/11 00:29:32;;;;;;;9.00;3.90;;;;;;;13.51;97.36;97951.22;4169984;28;20663;-86
2023/05/11 00:31:35;;;;;;;22.63;5.80;;;;;;;13.51;96.53;97946.81;4182219;28;20752;-86
2023/05/11 00:33:39;;;;;;;15.57;5.57;;;;;;;13.51;97.22;97945.97;4164848;28;20632;-86
2023/05/11 00:35:42;;;;;;;9.37;4.60;;;;;;;13.52;97.55;97942.41;4171540;28;20729;-86
2023/05/11 00:37:45;;;;;;;23.83;5.27;;;;;;;13.51;97.77;97946.81;4157185;28;20635;-85
2023/05/11 00:39:50;;;;;;;10.90;5.50;;;;;;;13.50;97.56;97946.94;4151739;28;20700;-86
2023/05/11 00:41:54;;;;;;;10.43;5.10;;;;;;;13.48;97.55;97944.44;4171070;28;20673;-86
2023/05/11 00:43:57;;;;;;;8.80;4.10;;;;;;;13.47;97.56;97931.47;4165307;28;20626;-86
2023/05/11 00:46:00;;;;;;;9.73;4.07;;;;;;;13.44;97.28;97937.81;4168097;28;20723;-86
2023/05/11 00:48:04;;;;;;;7.90;3.97;;;;;;;13.44;97.48;97934.31;4170108;28;20660;-85
2023/05/11 00:50:08;;;;;;;8.07;3.80;;;;;;;13.43;97.21;97937.94;4160581;28;20638;-86
2023/05/11 00:52:11;;;;;;;11.03;4.27;;;;;;;13.43;97.46;97945.78;4167942;28;20637;-86
2023/05/11 00:54:14;;;;;;;12.67;4.23;;;;;;;13.43;97.81;97937.94;4169871;28;20638;-86
2023/05/11 00:56:20;;;;;;;7.00;3.23;;;;;;;13.45;97.51;97944.69;4164017;28;20637;-86
2023/05/11 00:58:24;;;;;;;18.70;5.00;;;;;;;13.45;97.38;97936.81;4153209;28;21326;-86
2023/05/11 01:00:27;;;;;;;11.73;3.10;;;;;;;13.47;96.92;97941.94;4164373;28;20748;-85
2023/05/11 01:02:31;;;;;;;10.20;4.47;;;;;;;13.45;96.33;97941.25;4167238;28;20639;-86
2023/05/11 01:04:34;;;;;;;8.33;5.13;;;;;;;13.45;97.42;97942.06;4150880;28;20674;-86
2023/05/11 01:06:49;;;;;;;15.83;4.23;;;;;;;13.45;97.02;97947.31;4168976;28;21281;-86
2023/05/11 01:08:57;;;;;;;7.60;4.23;;;;;;;13.41;97.00;97948.53;4169698;28;20663;-85
2023/05/11 01:11:06;;;;;;;9.27;4.43;;;;;;;13.39;96.94;97945.19;4161113;28;20638;-86
2023/05/11 01:13:17;;;;;;;8.33;4.20;;;;;;;13.37;97.63;97939.25;4166209;28;20696;-86
2023/05/11 01:15:25;;;;;;;7.60;4.10;;;;;;;13.35;97.13;97941.16;4164347;28;20679;-85
2023/05/11 01:17:36;;;;;;;11.97;3.37;;;;;;;13.33;97.10;97942.25;4147189;28;21972;-86
2023/05/11 01:19:44;;;;;;;11.07;3.90;;;;;;;13.31;97.65;97944.16;4152955;28;20628;-85
2023/05/11 01:21:50;;;;;;;8.40;3.90;;;;;;;13.29;97.22;97946.06;4156961;28;20631;-86
2023/05/11 01:24:05;;;;;;;8.00;3.30;;;;;;;13.28;97.67;97936.56;4164296;28;20627;-86
2023/05/11 01:26:39;;;;;;;10.33;4.00;;;;;;;13.27;97.09;97945.34;4165477;28;22240;-85
2023/05/11 01:29:16;;;;;;;8.40;4.63;;;;;;;13.26;97.50;97939.28;4165855;28;21056;-85
2023/05/11 01:31:21;;;;;;;12.90;4.60;;;;;;;13.26;97.27;97941.91;4160194;28;20664;-86
2023/05/11 01:33:28;;;;;;;7.80;3.33;;;;;;;13.29;97.19;97940.81;4151136;28;20624;-86
2023/05/11 01:35:33;;;;;;;7.13;3.70;;;;;;;13.30;97.24;97939.88;4159907;28;20658;-85
2023/05/11 01:37:36;;;;;;;9.20;3.80;;;;;;;13.30;97.72;97942.50;4167729;28;20750;-86
2023/05/11 01:39:43;;;;;;;9.20;3.63;;;;;;;13.30;97.65;97937.25;4170966;28;20739;-86
2023/05/11 01:41:52;;;;;;;7.37;3.87;;;;;;;13.31;96.91;97939.75;4167285;28;20635;-86
2023/05/11 01:43:58;;;;;;;17.10;3.60;;;;;;;13.30;97.66;97939.88;4160303;28;21304;-85
2023/05/11 01:46:03;;;;;;;7.07;2.53;;;;;;;13.29;97.57;97941.66;4158473;28;20626;-86
2023/05/11 01:48:11;;;;;;;7.73;2.80;;;;;;;13.29;97.60;97940.81;4142929;28;20635;-86
2023/05/11 01:50:14;;;;;;;5.23;2.63;;;;;;;13.30;97.71;97947.72;4161252;28;20659;-85
2023/05/11 01:52:18;;;;;;;11.77;4.23;;;;;;;13.30;97.43;97952.97;4153215;28;20632;-85
2023/05/11 01:54:22;;;;;;;11.73;4.20;;;;;;;13.28;97.66;97945.22;4170950;28;20650;-85
2023/05/11 01:56:26;;;;;;;18.93;4.70;;;;;;;13.25;98.15;97945.47;4166922;28;20641;-86
2023/05/11 01:58:30;;;;;;;20.63;4.33;;;;;;;13.26;98.10;97946.31;4156209;28;20640;-86
2023/05/11 02:00:33;;;;;;;10.50;4.80;;;;;;;13.26;97.92;97941.06;4168089;28;20996;-86
2023/05/11 02:02:36;;;;;;;7.33;3.40;;;;;;;13.24;97.11;97945.59;4168742;28;20649;-86
2023/05/11 02:04:41;;;;;;;9.03;3.97;;;;;;;13.22;97.51;97950.16;4155267;28;21225;-86
2023/05/11 02:06:45;;;;;;;12.03;4.20;;;;;;;13.21;97.84;97948.47;4164158;28;20638;-86
2023/05/11 02:08:49;;;;;;;9.37;4.43;;;;;;;13.21;97.73;97944.09;4167568;28;21014;-86
2023/05/11 02:10:53;;;;;;;8.33;3.50;;;;;;;13.23;98.47;97949.19;4166381;28;21070;-86
2023/05/11 02:12:58;;;;;;;17.93;4.50;;;;;;;13.24;97.95;97950.84;4166716;28;20642;-85
2023/05/11 02:15:01;;;;;;;11.03;5.03;;;;;;;13.24;97.74;97940.38;4153251;28;20686;-85
2023/05/11 02:17:07;;;;;;;13.80;4.00;;;;;;;13.21;98.31;97944.09;4143971;28;20708;-85
2023/05/11 02:19:12;;;;;;;7.73;3.23;;;;;;;13.18;97.42;97946.09;4163909;28;20621;-85
2023/05/11 02:21:18;;;;;;;12.23;3.87;;;;;;;13.15;97.32;97948.97;4169569;28;20633;-86
2023/05/11 02:23:23;;;;;;;9.60;3.47;;;;;;;13.12;98.29;97951.00;4154949;28;20663;-86
2023/05/11 02:25:26;;;;;;;7.50;4.43;;;;;;;13.10;98.12;97950.31;4164508;28;20688;-85
2023/05/11 02:27:31;;;;;;;10.43;3.83;;;;;;;13.10;98.01;97951.13;4164155;28;21238;-85
2023/05/11 02:29:35;;;;;;;16.53;3.63;;;;;;;13.10;98.25;97951.13;4175220;28;20657;-85
2023/05/11 02:31:42;;;;;;;7.20;3.60;;;;;;;13.09;97.59;97944.22;4165582;28;20643;-86
2023/05/11 02:33:50;;;;;;;12.03;4.00;;;;;;;13.14;97.85;97952.56;4166129;28;20684;-85
2023/05/11 02:35:55;;;;;;;8.80;3.73;;;;;;;13.12;98.13;97951.00;4167879;28;20726;-85
2023/05/11 02:38:04;;;;;;;8.13;3.60;;;;;;;13.13;97.61;97953.50;4153498;28;21044;-86
2023/05/11 02:40:15;;;;;;;7.97;4.20;;;;;;;13.14;97.60;97949.09;4167902;28;20703;-85
2023/05/11 02:42:22;;;;;;;16.73;4.10;;;;;;;13.13;98.03;97948.28;4145522;28;20715;-85
2023/05/11 02:44:28;;;;;;;37.30;5.90;;;;;;;13.15;97.72;97948.97;4145289;28;20641;-85
2023/05/11 02:46:33;;;;;;;7.93;4.80;;;;;;;13.14;97.58;97942.09;4148230;28;20619;-85
2023/05/11 02:48:40;;;;;;;12.47;2.77;;;;;;;13.08;97.20;97945.19;4155860;28;20637;-85
2023/05/11 02:50:44;;;;;;;8.27;3.90;;;;;;;13.06;97.99;97938.41;4161430;28;20646;-85
2023/05/11 02:52:48;;;;;;;13.03;4.70;;;;;;;13.04;98.40;97949.00;4166273;28;21016;-86
2023/05/11 02:54:53;;;;;;;6.90;2.73;;;;;;;13.01;98.77;97940.59;4177714;28;20642;-86
2023/05/11 02:56:57;;;;;;;7.73;2.93;;;;;;;13.00;98.03;97939.72;4156960;28;20649;-85
2023/05/11 02:59:01;;;;;;;13.00;4.20;;;;;;;13.00;98.36;97938.91;4153940;28;21276;-86
2023/05/11 03:01:07;;;;;;;6.70;3.27;;;;;;;13.00;98.32;97934.50;4163915;28;20640;-86
2023/05/11 03:03:10;;;;;;;7.30;3.57;;;;;;;13.01;97.96;97936.16;4165055;28;20635;-85
2023/05/11 03:05:13;;;;;;;11.10;4.10;;;;;;;13.03;98.48;97938.66;4181616;28;20740;-86
2023/05/11 03:07:16;;;;;;;9.47;5.40;;;;;;;13.01;98.51;97940.59;4155656;28;21063;-85
2023/05/11 03:09:20;;;;;;;16.07;3.80;;;;;;;12.96;97.90;97932.25;4184422;28;20678;-85
2023/05/11 03:11:25;;;;;;;8.23;3.13;;;;;;;12.94;97.80;97934.16;4161699;28;20639;-86
2023/05/11 03:13:29;;;;;;;7.47;3.87;;;;;;;12.92;97.76;97931.66;4174962;28;20629;-86
2023/05/11 03:15:34;;;;;;;10.47;4.80;;;;;;;12.93;98.41;97932.47;4166863;28;20637;-85
2023/05/11 03:17:38;;;;;;;6.83;3.60;;;;;;;12.93;98.25;97933.34;4152266;28;20650;-86
2023/05/11 03:19:41;;;;;;;14.90;4.10;;;;;;;12.95;97.54;97936.66;4148286;28;20640;-85
2023/05/11 03:21:46;;;;;;;7.60;3.30;;;;;;;12.95;98.50;97933.22;4162135;28;20636;-85
2023/05/11 03:23:50;;;;;;;7.10;3.80;;;;;;;12.94;99.25;97929.75;4168901;28;20716;-85
2023/05/11 03:25:53;;;;;;;17.00;4.10;;;;;;;12.92;98.65;97926.44;4167016;28;20673;-86
2023/05/11 03:27:59;;;;;;;9.30;4.30;;;;;;;12.93;98.30;97933.34;4161529;28;20625;-86
2023/05/11 03:30:05;;;;;;;12.53;3.70;;;;;;;12.93;98.61;97942.97;4168231;28;21327;-86
2023/05/11 03:32:12;;;;;;;17.07;3.90;;;;;;;12.90;98.87;97930.09;4167230;28;20649;-86
2023/05/11 03:34:17;;;;;;;8.83;4.30;;;;;;;12.91;98.84;97934.41;4153814;28;20610;-85
2023/05/11 03:36:22;;;;;;;7.20;3.30;;;;;;;12.90;98.88;97932.72;4169331;28;20629;-86
2023/05/11 03:38:28;;;;;;;7.13;3.43;;;;;;;12.93;99.30;97924.63;4167558;28;21283;-85
2023/05/11 03:40:33;;;;;;;9.03;3.80;;;;;;;12.94;98.43;97934.16;4176320;28;20708;-86
2023/05/11 03:42:37;;;;;;;7.63;3.20;;;;;;;12.97;99.12;97936.53;4166537;28;20712;-85
2023/05/11 03:44:42;;;;;;;14.03;4.40;;;;;;;13.01;98.87;97935.34;4154863;28;20646;-86
2023/05/11 03:46:46;;;;;;;8.03;3.53;;;;;;;13.04;98.73;97940.34;4168034;28;20641;-85
2023/05/11 03:48:50;;;;;;;7.00;3.17;;;;;;;13.07;98.51;97929.63;4169879;28;20631;-86
2023/05/11 03:50:57;;;;;;;14.20;3.50;;;;;;;13.07;98.12;97930.44;4149160;28;20667;-86
2023/05/11 03:53:00;;;;;;;6.63;3.73;;;;;;;13.11;99.33;97931.00;4164866;28;20646;-86
2023/05/11 03:55:04;;;;;;;7.23;3.20;;;;;;;13.10;98.36;97930.19;4149481;28;21426;-85
2023/05/11 03:57:09;;;;;;;12.30;3.60;;;;;;;13.10;98.14;97931.97;4160764;28;21297;-86
2023/05/11 03:59:15;;;;;;;6.70;3.43;;;;;;;13.10;97.84;97934.59;4151467;28;20641;-85
2023/05/11 04:01:21;;;;;;;11.97;4.37;;;;;;;13.08;98.41;97936.50;4159448;28;20638;-85
2023/05/11 04:03:25;;;;;;;13.83;4.60;;;;;;;13.09;98.75;97932.94;4168003;28;20634;-86
2023/05/11 04:05:29;;;;;;;7.00;3.53;;;;;;;13.09;98.65;97927.69;4150118;28;20728;-86
2023/05/11 04:07:33;;;;;;;15.50;4.10;;;;;;;13.10;98.72;97932.81;4150260;28;20649;-86
2023/05/11 04:09:36;;;;;;;6.87;2.53;;;;;;;13.13;98.00;97934.34;4151454;28;20642;-85
2023/05/11 04:11:40;;;;;;;7.47;3.23;;;;;;;13.13;97.70;97935.19;4176681;28;20748;-85
2023/05/11 04:13:43;;;;;;;10.20;4.40;;;;;;;13.15;97.96;97929.81;4162767;28;20674;-86
2023/05/11 04:15:46;;;;;;;6.43;2.73;;;;;;;13.14;97.60;97925.53;4169117;28;21191;-86
2023/05/11 04:17:50;;;;;;;10.23;3.43;;;;;;;13.14;97.61;97931.63;4168165;28;20630;-85
2023/05/11 04:19:54;;;;;;;6.30;3.57;;;;;;;13.14;98.26;97934.22;4168755;28;20641;-86
2023/05/11 04:21:58;;;;;;;11.13;4.90;;;;;;;13.13;97.91;97929.13;4154112;28;20696;-86
2023/05/11 04:24:01;;;;;;;10.57;3.80;;;;;;;13.15;98.20;97933.25;4153908;28;20629;-86
2023/05/11 04:26:04;;;;;;;7.10;3.20;;;;;;;13.15;97.86;97932.44;4146963;28;20632;-86
2023/05/11 04:28:07;;;;;;;6.90;3.03;;;;;;;13.14;97.99;97936.84;4163190;28;20736;-86
2023/05/11 04:30:11;;;;;;;14.63;5.00;;;;;;;13.16;98.83;97944.59;4163781;28;20644;-86
2023/05/11 04:32:15;;;;;;;6.50;4.33;;;;;;;13.18;99.03;97933.00;4150120;28;20648;-85
2023/05/11 04:34:21;;;;;;;15.13;3.87;;;;;;;13.19;98.58;97929.44;4148619;28;20753;-86
2023/05/11 04:36:24;;;;;;;6.53;3.47;;;;;;;13.21;98.61;97932.75;4152645;28;20742;-86
2023/05/11 04:38:27;;;;;;;7.10;3.30;;;;;;;13.22;97.55;97937.06;4166270;28;20634;-85
2023/05/11 04:40:31;;;;;;;6.27;3.10;;;;;;;13.18;96.77;97933.00;4166295;28;20675;-86
2023/05/11 04:42:37;;;;;;;8.30;5.57;;;;;;;13.16;97.39;97934.94;4166414;28;20634;-85
2023/05/11 04:44:43;;;;;;;6.43;4.10;;;;;;;13.17;98.01;97935.75;4167948;28;20726;-86
2023/05/11 04:46:47;;;;;;;8.60;3.40;;;;;;;13.18;98.51;97933.00;4167822;28;20632;-86
2023/05/11 04:48:50;;;;;;;7.47;4.03;;;;;;;13.18;98.72;97933.00;4167337;28;20640;-86
2023/05/11 04:50:55;;;;;;;10.87;3.63;;;;;;;13.18;99.13;97932.19;4147544;28;20738;-86
2023/05/11 04:53:03;;;;;;;11.87;4.60;;;;;;;13.18;98.77;97944.34;4166377;28;20624;-86
2023/05/11 04:55:07;;;;;;;6.43;3.40;;;;;;;13.18;98.90;97945.28;4149223;28;20669;-86
2023/05/11 04:57:10;;;;;;;6.37;2.70;;;;;;;13.17;99.18;97947.06;4168578;28;20764;-86
2023/05/11 04:59:13;;;;;;;8.03;3.93;;;;;;;13.18;99.07;97949.56;4167486;28;20644;-85
2023/05/11 05:01:16;;;;;;;7.50;3.70;;;;;;;13.21;98.50;97948.47;4167582;28;20630;-85
2023/05/11 05:03:19;;;;;;;7.33;3.77;;;;;;;13.24;98.50;97948.22;4171294;28;20647;-86
2023/05/11 05:05:24;;;;;;;6.27;3.27;;;;;;;13.27;98.61;97953.22;4169484;28;20739;-86
2023/05/11 05:07:28;;;;;;;11.37;4.00;;;;;;;13.30;98.52;97952.97;4168787;28;20644;-86
2023/05/11 05:09:31;;;;;;;11.23;4.00;;;;;;;13.31;99.09;97954.66;4165506;28;21203;-86
2023/05/11 05:11:34;;;;;;;7.70;3.27;;;;;;;13.34;99.28;97943.91;4151134;28;20746;-86
2023/05/11 05:13:38;;;;;;;6.13;3.60;;;;;;;13.34;99.18;97947.34;4167173;28;20692;-86
2023/05/11 05:15:41;;;;;;;10.70;4.57;;;;;;;13.36;98.55;97953.28;4166111;28;20676;-86
2023/05/11 05:17:45;;;;;;;5.77;2.93;;;;;;;13.41;99.41;97959.00;4152561;28;20669;-86
2023/05/11 05:19:49;;;;;;;5.77;2.50;;;;;;;13.45;98.81;97964.81;4149746;28;20767;-86
2023/05/11 05:21:52;;;;;;;6.90;3.60;;;;;;;13.46;99.43;97969.94;4166432;28;20634;-85
2023/05/11 05:23:57;;;;;;;6.73;3.40;;;;;;;13.48;99.15;97967.19;4166701;28;20630;-85
2023/05/11 05:26:01;;;;;;;13.03;4.83;;;;;;;13.51;99.24;97966.94;4173715;28;21300;-85
2023/05/11 05:28:05;;;;;;;5.87;2.90;;;;;;;13.51;99.12;97962.53;4164591;28;20639;-85
2023/05/11 05:30:09;;;;;;;5.60;2.50;;;;;;;13.57;99.25;97963.81;4167510;28;21218;-84
2023/05/11 05:32:12;;;;;;;12.50;3.90;;;;;;;13.59;99.57;97970.59;4148105;28;20667;-85
2023/05/11 05:34:15;;;;;;;6.10;3.63;;;;;;;13.63;99.49;97971.19;4176254;28;20638;-84
2023/05/11 05:36:19;;;;;;;7.13;3.20;;;;;;;13.66;99.37;97977.00;4167474;28;21030;-85
2023/05/11 05:38:23;;;;;;;6.33;3.33;;;;;;;13.70;99.55;97970.53;4171622;28;20729;-85
2023/05/11 05:40:27;;;;;;;12.30;4.37;;;;;;;13.75;99.23;97976.22;4169795;28;20663;-84
2023/05/11 05:42:31;;;;;;;14.10;3.83;;;;;;;13.79;99.38;97981.09;4170052;28;20631;-84
2023/05/11 05:44:35;;;;;;;5.80;3.00;;;;;;;13.81;99.19;97971.31;4170020;28;20638;-84
2023/05/11 05:46:38;;;;;;;11.93;3.80;;;;;;;13.83;98.46;97979.91;4153217;28;20631;-84
2023/05/11 05:48:41;;;;;;;5.70;3.20;;;;;;;13.85;98.46;97982.38;4146299;28;20623;-84
2023/05/11 05:50:45;;;;;;;13.03;3.40;;;;;;;13.89;99.16;97981.16;4138270;28;20673;-84
2023/05/11 05:52:48;;;;;;;6.00;3.10;;;;;;;13.93;99.03;97983.41;4151764;28;20654;-84
2023/05/11 05:54:51;;;;;;;15.20;10.00;;;;;;;13.96;99.07;97977.91;4149812;28;21260;-84
2023/05/11 05:56:55;;;;;;;7.53;4.10;;;;;;;14.01;98.56;97977.50;4159102;28;20639;-83
2023/05/11 05:59:01;;;;;;;13.33;4.10;;;;;;;14.02;97.96;97985.25;4140244;28;21258;-83
2023/05/11 06:01:05;;;;;;;10.63;4.03;;;;;;;14.04;98.64;97980.69;4147046;28;20647;-83
2023/05/11 06:03:08;;;;;;;9.53;3.80;;;;;;;14.09;98.96;97983.81;4134458;28;20694;-85
2023/05/11 06:05:12;;;;;;;6.53;3.70;;;;;;;14.13;97.90;97990.47;4157652;28;20662;-86
2023/05/11 06:07:15;;;;;;;6.93;3.30;;;;;;;14.16;96.90;97983.19;4161208;28;21209;-84
2023/05/11 06:09:18;;;;;;;10.10;4.20;;;;;;;14.21;97.70;97990.66;4166638;28;20736;-84
2023/05/11 06:11:22;;;;;;;6.23;3.30;;;;;;;14.22;96.01;97987.91;4164644;28;21218;-84
2023/05/11 06:13:28;;;;;;;7.60;3.80;;;;;;;14.25;95.89;97987.66;4157047;28;20678;-84
2023/05/11 06:15:33;;;;;;;6.17;2.80;;;;;;;14.27;95.49;97985.72;4152961;28;20674;-84
2023/05/11 06:17:43;;;;;;;13.83;4.90;;;;;;;14.30;95.05;97982.84;4169411;28;20698;-84
2023/05/11 06:19:49;;;;;;;8.73;2.77;;;;;;;14.29;96.17;97990.84;4155517;28;20646;-84
2023/05/11 06:21:56;;;;;;;12.13;4.27;;;;;;;14.25;96.08;97989.44;4156630;28;20656;-84
2023/05/11 06:23:59;;;;;;;6.90;3.40;;;;;;;14.26;95.78;97985.84;4174328;28;21248;-84
2023/05/11 06:26:04;;;;;;;7.63;3.90;;;;;;;14.27;95.28;97993.59;4155222;28;20636;-84
2023/05/11 06:28:09;;;;;;;7.00;3.77;;;;;;;14.30;95.30;97984.63;4175798;28;20642;-84
2023/05/11 06:30:14;;;;;;;7.47;3.87;;;;;;;14.34;95.38;97991.28;4161238;28;20642;-84
2023/05/11 06:32:17;;;;;;;13.00;4.27;;;;;;;14.30;94.83;97988.09;4150486;28;20812;-84
2023/05/11 06:34:21;;;;;;;6.23;2.70;;;;;;;14.31;95.63;97981.03;4178308;28;20635;-84
2023/05/11 06:36:25;;;;;;;12.50;3.07;;;;;;;14.33;95.39;97987.00;4150734;28;20645;-84
2023/05/11 06:38:28;;;;;;;8.00;4.13;;;;;;;14.35;95.38;97985.06;4169021;28;20634;-84
2023/05/11 06:40:31;;;;;;;7.43;2.83;;;;;;;14.37;94.75;97989.25;4166342;28;20636;-86
2023/05/11 06:42:35;;;;;;;6.87;3.70;;;;;;;14.35;94.98;97990.31;4167804;28;20637;-85
2023/05/11 06:44:44;;;;;;;7.10;3.53;;;;;;;14.36;95.81;97992.00;4143659;28;20655;-85
2023/05/11 06:46:49;;;;;;;10.83;4.43;;;;;;;14.38;96.26;97988.25;4154063;28;20640;-85
2023/05/11 06:48:52;;;;;;;11.83;3.20;;;;;;;14.41;96.29;97987.19;4167892;28;20635;-85
2023/05/11 06:50:55;;;;;;;7.10;3.10;;;;;;;14.43;96.25;97986.06;4167765;28;21101;-85
2023/05/11 06:52:58;;;;;;;10.27;4.43;;;;;;;14.47;94.93;97986.66;4170941;28;20652;-85
2023/05/11 06:55:04;;;;;;;6.83;3.10;;;;;;;14.50;95.07;97987.22;4171384;28;22229;-85
2023/05/11 06:57:07;;;;;;;6.73;3.13;;;;;;;14.51;95.79;97986.25;4166957;28;20738;-85
2023/05/11 06:59:10;;;;;;;8.20;5.00;;;;;;;14.53;93.96;97984.34;4148630;28;20640;-85
2023/05/11 07:01:13;;;;;;;7.00;3.10;;;;;;;14.55;94.32;97986.81;4168726;28;20635;-85
2023/05/11 07:03:18;;;;;;;7.50;3.90;;;;;;;14.56;95.16;97989.31;4154722;28;20643;-85
2023/05/11 07:05:21;;;;;;;10.80;4.70;;;;;;;14.58;94.95;97986.56;4164442;28;20678;-85
2023/05/11 07:07:24;;;;;;;4.40;3.53;;;;;;;14.59;95.68;97996.09;4169805;28;21034;-85
2023/05/11 07:09:27;;;;;;;15.33;3.53;;;;;;;14.63;95.95;97991.28;4178125;28;20633;-85
2023/05/11 07:11:31;;;;;;;10.13;3.80;;;;;;;14.69;96.40;97998.63;4152281;28;20650;-85
2023/05/11 07:13:34;;;;;;;6.43;4.63;;;;;;;14.71;94.84;97988.81;4166916;28;20636;-85
2023/05/11 07:15:37;;;;;;;9.27;4.23;;;;;;;14.73;94.63;98000.03;4163433;28;20678;-85
2023/05/11 07:17:40;;;;;;;8.13;3.03;;;;;;;14.74;94.92;97993.81;4155958;28;20632;-85
2023/05/11 07:19:45;;;;;;;11.77;4.27;;;;;;;14.78;94.57;97995.22;4170869;28;20759;-85
2023/05/11 07:21:48;;;;;;;7.90;3.43;;;;;;;14.82;95.57;97999.22;4157040;28;20635;-85
2023/05/11 07:23:51;;;;;;;10.43;4.60;;;;;;;14.86;95.01;98005.06;4153241;28;20631;-85
2023/05/11 07:25:56;;;;;;;9.60;4.17;;;;;;;14.88;95.22;97998.69;4152970;28;21097;-85
2023/05/11 07:27:59;;;;;;;6.53;3.20;;;;;;;14.94;95.96;97994.72;4166275;28;21100;-84
2023/05/11 07:30:03;;;;;;;11.80;4.43;;;;;;;14.98;94.85;98004.00;4158342;28;20631;-86
2023/05/11 07:32:08;;;;;;;8.03;5.27;;;;;;;15.00;95.62;97995.00;4174132;28;20721;-85
2023/05/11 07:34:11;;;;;;;11.30;4.03;;;;;;;15.00;95.27;98000.25;4166905;28;20727;-86
2023/05/11 07:36:15;;;;;;;3.00;2.57;;;;;;;15.03;94.65;98007.88;4153021;28;20648;-87
2023/05/11 07:38:18;;;;;;;4.60;3.60;;;;;;;15.03;93.81;98004.41;4157658;28;20690;-87
2023/05/11 07:40:22;;;;;;;6.80;3.53;;;;;;;15.03;93.59;98002.59;4164591;28;20635;-88
2023/05/11 07:42:25;;;;;;;9.80;3.80;;;;;;;15.06;93.08;97997.09;4164241;28;20639;-87
2023/05/11 07:44:28;;;;;;;7.80;3.90;;;;;;;15.08;94.08;98003.88;4147045;28;20703;-85
2023/05/11 07:46:31;;;;;;;7.67;4.13;;;;;;;15.10;94.15;98004.56;4172167;28;20675;-85
2023/05/11 07:48:34;;;;;;;9.40;2.73;;;;;;;15.08;93.11;98003.88;4171166;28;20740;-85
2023/05/11 07:50:37;;;;;;;6.00;3.93;;;;;;;15.11;92.29;98000.16;4172703;28;20766;-86
2023/05/11 07:52:42;;;;;;;9.93;2.93;;;;;;;15.12;93.49;98000.03;4157565;28;20659;-84
2023/05/11 07:54:45;;;;;;;25.33;6.43;;;;;;;15.15;93.28;98005.03;4162289;28;20706;-85
2023/05/11 07:56:48;;;;;;;40.40;5.90;;;;;;;15.20;92.19;98009.91;4173910;28;21051;-85
2023/05/11 07:58:51;;;;;;;24.30;5.80;;;;;;;15.25;94.00;98007.69;4168352;28;20642;-85
2023/05/11 08:00:54;;;;;;;28.47;5.63;;;;;;;15.30;93.53;98011.56;4152612;28;20645;-86
2023/05/11 08:02:57;;;;;;;52.30;5.30;;;;;;;15.34;94.45;98012.13;4152290;28;20797;-84
2023/05/11 08:05:01;;;;;;;43.53;5.90;;;;;;;15.37;92.21;98011.88;4154159;28;21216;-86
2023/05/11 08:07:04;;;;;;;15.17;5.20;;;;;;;15.39;92.70;98004.66;4151618;28;20666;-84
2023/05/11 08:09:09;;;;;;;28.03;5.60;;;;;;;15.39;94.24;98005.50;4169473;28;20643;-84
2023/05/11 08:11:12;;;;;;;41.13;5.80;;;;;;;15.42;94.56;98013.09;4173234;28;20649;-84
2023/05/11 08:13:15;;;;;;;25.77;6.20;;;;;;;15.46;93.84;98017.13;4155375;28;20686;-85
2023/05/11 08:15:19;;;;;;;20.33;6.10;;;;;;;15.50;93.03;98008.03;4159370;28;20682;-87
2023/05/11 08:17:23;;;;;;;33.07;5.90;;;;;;;15.50;91.66;98012.41;4161516;28;20636;-85
2023/05/11 08:19:26;;;;;;;23.77;5.43;;;;;;;15.51;91.31;98012.28;4165526;28;21052;-84
2023/05/11 08:21:29;;;;;;;22.97;5.50;;;;;;;15.51;92.99;98014.09;4170619;28;20635;-85
2023/05/11 08:23:32;;;;;;;17.43;7.33;;;;;;;15.51;91.54;98008.84;4173068;28;20697;-85
2023/05/11 08:25:37;;;;;;;15.57;5.23;;;;;;;15.54;91.67;98012.00;4170511;28;20647;-85
2023/05/11 08:27:40;;;;;;;29.13;7.60;;;;;;;15.52;90.33;98005.25;4168703;28;20687;-84
2023/05/11 08:29:43;;;;;;;20.33;5.00;;;;;;;15.54;92.49;98011.19;4149710;28;20659;-85
2023/05/11 08:31:46;;;;;;;8.33;3.83;;;;;;;15.56;92.92;98003.03;4155214;28;20703;-84
2023/05/11 08:33:50;;;;;;;9.07;5.60;;;;;;;15.59;93.70;98009.78;4172036;28;20666;-84
2023/05/11 08:35:53;;;;;;;6.40;5.30;;;;;;;15.63;93.87;98013.81;4166707;28;20634;-85
2023/05/11 08:37:56;;;;;;;11.93;6.30;;;;;;;15.69;93.60;98019.34;4162640;28;20746;-84
2023/05/11 08:40:00;;;;;;;6.57;4.07;;;;;;;15.70;92.73;98014.94;4154971;28;20664;-84
2023/05/11 08:42:06;;;;;;;6.30;4.63;;;;;;;15.70;92.96;98013.13;4171633;28;20652;-84
2023/05/11 08:44:10;;;;;;;8.03;4.33;;;;;;;15.73;91.75;98012.84;4171824;28;20724;-84
2023/05/11 08:46:17;;;;;;;9.70;5.63;;;;;;;15.74;92.10;98009.28;4148729;28;20648;-84
2023/05/11 08:48:21;;;;;;;8.50;4.23;;;;;;;15.80;92.19;98007.88;4145337;28;20683;-84
2023/05/11 08:50:24;;;;;;;10.87;5.50;;;;;;;15.84;92.64;98014.53;4153451;28;20637;-84
2023/05/11 08:52:28;;;;;;;8.63;4.23;;;;;;;15.91;91.70;98019.09;4175612;28;20626;-85
2023/05/11 08:54:31;;;;;;;5.63;3.77;;;;;;;16.01;93.16;98021.72;4165070;28;20741;-84
2023/05/11 08:56:36;;;;;;;9.73;4.03;;;;;;;16.05;92.63;98018.66;4168767;28;21270;-84
2023/05/11 08:58:42;;;;;;;8.73;4.60;;;;;;;16.05;92.16;98010.75;4173408;28;20644;-84
2023/05/11 09:00:46;;;;;;;17.00;5.30;;;;;;;16.05;90.80;98010.75;4172625;28;20757;-84
2023/05/11 09:02:50;;;;;;;4.80;4.23;;;;;;;16.06;90.77;98012.44;4161674;28;20670;-84
2023/05/11 09:04:54;;;;;;;5.90;4.07;;;;;;;16.07;90.64;98014.94;4171973;28;20672;-84
2023/05/11 09:06:58;;;;;;;12.53;5.00;;;;;;;16.11;91.65;98013.66;4171804;28;20683;-84
2023/05/11 09:09:01;;;;;;;6.73;3.90;;;;;;;16.15;89.99;98012.41;4148763;28;21267;-84
2023/05/11 09:11:05;;;;;;;5.73;3.60;;;;;;;16.19;90.54;98020.84;4165025;28;20636;-84
2023/05/11 09:13:08;;;;;;;10.63;4.43;;;;;;;16.23;90.48;98019.66;4171513;28;21498;-84
2023/05/11 09:15:13;;;;;;;5.50;4.80;;;;;;;16.25;88.62;98012.44;4165886;28;20671;-84
2023/05/11 09:17:16;;;;;;;5.70;4.83;;;;;;;16.25;88.15;98013.28;4165987;28;20756;-84
2023/05/11 09:19:19;;;;;;;8.70;4.80;;;;;;;16.28;88.79;98009.50;4166274;28;20651;-85
2023/05/11 09:21:24;;;;;;;6.60;3.90;;;;;;;16.32;87.53;98003.00;4149566;28;21106;-86
2023/05/11 09:23:28;;;;;;;8.43;4.00;;;;;;;16.37;89.44;98008.66;4158285;28;20681;-82
2023/05/11 09:25:33;;;;;;;5.77;4.70;;;;;;;16.33;87.99;98010.75;4167746;28;21080;-84
2023/05/11 09:27:41;;;;;;;16.20;4.50;;;;;;;16.28;88.34;98015.63;4152012;28;20617;-84
2023/05/11 09:29:44;;;;;;;30.57;4.90;;;;;;;16.28;89.15;98009.50;4151758;28;20707;-86
2023/05/11 09:31:55;;;;;;;26.87;5.33;;;;;;;16.30;88.76;98007.59;4169528;28;20647;-87
2023/05/11 09:34:12;;;;;;;36.73;6.00;;;;;;;16.32;88.69;98013.53;4161971;28;20706;-86
2023/05/11 09:36:23;;;;;;;29.70;6.30;;;;;;;16.35;87.71;98011.44;4170191;28;20635;-83
2023/05/11 09:38:26;;;;;;;20.50;4.80;;;;;;;16.40;87.55;98011.84;4168016;28;20657;-83
2023/05/11 09:40:29;;;;;;;33.87;5.70;;;;;;;16.42;88.42;98011.69;4173257;28;20647;-80
2023/05/11 09:42:36;;;;;;;30.57;6.00;;;;;;;16.45;89.39;98008.78;4156428;28;20684;-82